sensor_id;sensor_type;location;lat;lon;timestamp;pressure;altitude;pressure_sealevel;temperature;humidity
12221;BME280;6173;42.024;23.096;2022-08-19T00:01:58;96409.44;;;21.94;68.39
12221;BME280;6173;42.024;23.096;2022-08-19T00:04:28;96412.47;;;21.89;69.42
12221;BME280;6173;42.024;23.096;2022-08-19T00:06:55;96415.88;;;21.86;69.60
12221;BME280;6173;42.024;23.096;2022-08-19T00:09:23;96424.88;;;21.97;68.65
12221;BME280;6173;42.024;23.096;2022-08-19T00:11:50;96438.47;;;22.04;68.44
12221;BME280;6173;42.024;23.096;2022-08-19T00:14:19;96445.03;;;22.03;67.91
12221;BME280;6173;42.024;23.096;2022-08-19T00:16:48;96431.50;;;21.73;69.63
12221;BME280;6173;42.024;23.096;2022-08-19T00:19:17;96412.22;;;21.45;71.80
12221;BME280;6173;42.024;23.096;2022-08-19T00:21:43;96411.84;;;21.46;72.05
12221;BME280;6173;42.024;23.096;2022-08-19T00:24:12;96400.03;;;21.54;73.02
12221;BME280;6173;42.024;23.096;2022-08-19T00:26:40;96400.06;;;21.58;73.29
12221;BME280;6173;42.024;23.096;2022-08-19T00:29:10;96405.53;;;21.61;73.47
12221;BME280;6173;42.024;23.096;2022-08-19T00:31:38;96408.81;;;21.78;71.82
12221;BME280;6173;42.024;23.096;2022-08-19T00:34:05;96418.06;;;21.77;70.94
12221;BME280;6173;42.024;23.096;2022-08-19T00:36:32;96415.63;;;21.68;70.45
12221;BME280;6173;42.024;23.096;2022-08-19T00:38:59;96410.22;;;21.41;71.81
12221;BME280;6173;42.024;23.096;2022-08-19T00:41:27;96412.19;;;21.22;74.30
12221;BME280;6173;42.024;23.096;2022-08-19T00:43:58;96418.31;;;21.19;75.22
12221;BME280;6173;42.024;23.096;2022-08-19T00:46:25;96408.25;;;21.15;75.75
12221;BME280;6173;42.024;23.096;2022-08-19T00:48:54;96378.78;;;20.57;76.91
12221;BME280;6173;42.024;23.096;2022-08-19T00:51:22;96400.28;;;20.77;78.28
12221;BME280;6173;42.024;23.096;2022-08-19T00:53:52;96402.41;;;20.68;79.49
12221;BME280;6173;42.024;23.096;2022-08-19T00:56:20;96402.41;;;20.68;79.26
12221;BME280;6173;42.024;23.096;2022-08-19T00:58:47;96391.41;;;20.53;80.12
12221;BME280;6173;42.024;23.096;2022-08-19T01:01:14;96407.81;;;20.68;79.66
12221;BME280;6173;42.024;23.096;2022-08-19T01:03:41;96390.97;;;20.51;79.49
12221;BME280;6173;42.024;23.096;2022-08-19T01:06:09;96407.81;;;20.68;80.60
12221;BME280;6173;42.024;23.096;2022-08-19T01:08:36;96406.63;;;20.65;80.69
12221;BME280;6173;42.024;23.096;2022-08-19T01:11:03;96415.47;;;20.65;80.04
12221;BME280;6173;42.024;23.096;2022-08-19T01:13:33;96406.72;;;20.49;81.43
12221;BME280;6173;42.024;23.096;2022-08-19T01:16:03;96397.34;;;20.62;80.95
12221;BME280;6173;42.024;23.096;2022-08-19T01:18:32;96404.47;;;20.74;80.80
12221;BME280;6173;42.024;23.096;2022-08-19T01:21:02;96414.53;;;20.77;81.25
12221;BME280;6173;42.024;23.096;2022-08-19T01:23:33;96414.59;;;20.81;80.46
12221;BME280;6173;42.024;23.096;2022-08-19T01:26:11;96405.41;;;20.62;81.96
12221;BME280;6173;42.024;23.096;2022-08-19T01:28:39;96413.63;;;20.70;81.66
12221;BME280;6173;42.024;23.096;2022-08-19T01:31:07;96413.88;;;20.84;80.37
12221;BME280;6173;42.024;23.096;2022-08-19T01:33:36;96411.78;;;20.74;80.89
12221;BME280;6173;42.024;23.096;2022-08-19T01:36:06;96422.41;;;20.67;81.38
12221;BME280;6173;42.024;23.096;2022-08-19T01:38:37;96422.97;;;20.56;82.02
12221;BME280;6173;42.024;23.096;2022-08-19T01:41:04;96423.06;;;20.60;83.67
12221;BME280;6173;42.024;23.096;2022-08-19T01:43:31;96426.22;;;20.46;83.54
12221;BME280;6173;42.024;23.096;2022-08-19T01:45:58;96414.03;;;20.33;83.66
12221;BME280;6173;42.024;23.096;2022-08-19T01:48:26;96435.00;;;20.43;84.53
12221;BME280;6173;42.024;23.096;2022-08-19T01:50:54;96432.44;;;20.31;85.73
12221;BME280;6173;42.024;23.096;2022-08-19T01:53:21;96433.72;;;20.18;86.88
12221;BME280;6173;42.024;23.096;2022-08-19T01:55:49;96431.47;;;20.20;86.91
12221;BME280;6173;42.024;23.096;2022-08-19T01:58:18;96436.19;;;20.26;86.06
12221;BME280;6173;42.024;23.096;2022-08-19T02:00:47;96428.28;;;20.14;86.99
12221;BME280;6173;42.024;23.096;2022-08-19T02:03:14;96415.81;;;20.06;88.15
12221;BME280;6173;42.024;23.096;2022-08-19T02:05:42;96421.59;;;20.08;88.31
12221;BME280;6173;42.024;23.096;2022-08-19T02:08:09;96423.22;;;20.12;88.46
12221;BME280;6173;42.024;23.096;2022-08-19T02:10:39;96426.19;;;20.07;88.14
12221;BME280;6173;42.024;23.096;2022-08-19T02:13:08;96408.50;;;19.87;89.57
12221;BME280;6173;42.024;23.096;2022-08-19T02:15:35;96412.88;;;19.76;90.84
12221;BME280;6173;42.024;23.096;2022-08-19T02:18:01;96410.09;;;19.56;93.67
12221;BME280;6173;42.024;23.096;2022-08-19T02:20:28;96406.84;;;19.31;96.04
12221;BME280;6173;42.024;23.096;2022-08-19T02:22:55;96409.94;;;19.33;96.42
12221;BME280;6173;42.024;23.096;2022-08-19T02:25:22;96427.28;;;19.36;96.95
12221;BME280;6173;42.024;23.096;2022-08-19T02:27:48;96430.31;;;19.34;96.66
12221;BME280;6173;42.024;23.096;2022-08-19T02:30:17;96432.66;;;19.36;97.19
12221;BME280;6173;42.024;23.096;2022-08-19T02:32:45;96432.81;;;19.27;98.09
12221;BME280;6173;42.024;23.096;2022-08-19T02:35:12;96429.88;;;19.32;100.00
12221;BME280;6173;42.024;23.096;2022-08-19T02:37:40;96438.53;;;19.42;98.95
12221;BME280;6173;42.024;23.096;2022-08-19T02:40:24;96440.28;;;19.66;96.33
12221;BME280;6173;42.024;23.096;2022-08-19T02:42:51;96434.91;;;19.66;95.63
12221;BME280;6173;42.024;23.096;2022-08-19T02:45:19;96427.34;;;19.71;95.91
12221;BME280;6173;42.024;23.096;2022-08-19T02:47:46;96435.91;;;19.77;94.14
12221;BME280;6173;42.024;23.096;2022-08-19T02:50:13;96435.06;;;19.73;94.57
12221;BME280;6173;42.024;23.096;2022-08-19T02:52:40;96436.31;;;19.59;96.28
12221;BME280;6173;42.024;23.096;2022-08-19T02:55:07;96443.66;;;19.62;94.92
12221;BME280;6173;42.024;23.096;2022-08-19T02:57:34;96440.53;;;19.45;97.75
12221;BME280;6173;42.024;23.096;2022-08-19T03:00:04;96439.56;;;19.37;97.96
12221;BME280;6173;42.024;23.096;2022-08-19T03:02:32;96439.22;;;19.23;100.00
12221;BME280;6173;42.024;23.096;2022-08-19T03:04:59;96436.19;;;19.08;100.00
12221;BME280;6173;42.024;23.096;2022-08-19T03:07:27;96437.78;;;19.09;100.00
12221;BME280;6173;42.024;23.096;2022-08-19T03:09:53;96447.19;;;19.03;100.00
12221;BME280;6173;42.024;23.096;2022-08-19T03:12:20;96408.94;;;18.63;100.00
12221;BME280;6173;42.024;23.096;2022-08-19T03:14:47;96455.03;;;18.80;100.00
12221;BME280;6173;42.024;23.096;2022-08-19T03:17:14;96452.00;;;18.82;100.00
12221;BME280;6173;42.024;23.096;2022-08-19T03:19:42;96459.47;;;18.89;100.00
12221;BME280;6173;42.024;23.096;2022-08-19T03:22:09;96456.34;;;18.87;100.00
12221;BME280;6173;42.024;23.096;2022-08-19T03:24:36;96455.41;;;18.95;100.00
12221;BME280;6173;42.024;23.096;2022-08-19T03:27:03;96445.97;;;19.01;100.00
12221;BME280;6173;42.024;23.096;2022-08-19T03:29:31;96447.44;;;18.98;100.00
12221;BME280;6173;42.024;23.096;2022-08-19T03:31:59;96454.38;;;18.99;100.00
12221;BME280;6173;42.024;23.096;2022-08-19T03:34:29;96453.78;;;18.90;100.00
12221;BME280;6173;42.024;23.096;2022-08-19T03:36:59;96453.06;;;18.93;100.00
12221;BME280;6173;42.024;23.096;2022-08-19T03:39:29;96461.84;;;19.06;100.00
12221;BME280;6173;42.024;23.096;2022-08-19T03:41:56;96458.81;;;19.07;100.00
12221;BME280;6173;42.024;23.096;2022-08-19T03:44:25;96435.06;;;18.94;100.00
12221;BME280;6173;42.024;23.096;2022-08-19T03:46:53;96460.81;;;19.10;100.00
12221;BME280;6173;42.024;23.096;2022-08-19T03:49:22;96454.03;;;19.17;100.00
12221;BME280;6173;42.024;23.096;2022-08-19T03:51:50;96462.63;;;19.06;100.00
12221;BME280;6173;42.024;23.096;2022-08-19T03:54:20;96466.22;;;18.98;100.00
12221;BME280;6173;42.024;23.096;2022-08-19T03:56:49;96455.16;;;19.00;100.00
12221;BME280;6173;42.024;23.096;2022-08-19T03:59:18;96463.22;;;19.00;100.00
12221;BME280;6173;42.024;23.096;2022-08-19T04:01:47;96472.13;;;19.04;100.00
12221;BME280;6173;42.024;23.096;2022-08-19T04:04:13;96477.59;;;19.07;100.00
12221;BME280;6173;42.024;23.096;2022-08-19T04:06:40;96475.94;;;19.03;100.00
12221;BME280;6173;42.024;23.096;2022-08-19T04:09:10;96480.59;;;18.90;100.00
12221;BME280;6173;42.024;23.096;2022-08-19T04:11:40;96481.72;;;18.89;100.00
12221;BME280;6173;42.024;23.096;2022-08-19T04:14:08;96488.19;;;19.16;100.00
12221;BME280;6173;42.024;23.096;2022-08-19T04:16:36;96477.53;;;19.20;100.00
12221;BME280;6173;42.024;23.096;2022-08-19T04:19:04;96459.06;;;19.18;100.00
12221;BME280;6173;42.024;23.096;2022-08-19T04:21:32;96494.53;;;19.55;100.00
12221;BME280;6173;42.024;23.096;2022-08-19T04:23:59;96493.03;;;19.58;100.00
12221;BME280;6173;42.024;23.096;2022-08-19T04:26:28;96479.94;;;19.56;98.26
12221;BME280;6173;42.024;23.096;2022-08-19T04:28:59;96504.50;;;19.71;97.97
12221;BME280;6173;42.024;23.096;2022-08-19T04:31:29;96503.91;;;19.61;99.62
12221;BME280;6173;42.024;23.096;2022-08-19T04:33:58;96501.47;;;19.72;98.18
12221;BME280;6173;42.024;23.096;2022-08-19T04:36:27;96491.16;;;19.74;96.27
12221;BME280;6173;42.024;23.096;2022-08-19T04:38:56;96507.53;;;19.85;96.90
12221;BME280;6173;42.024;23.096;2022-08-19T04:41:23;96509.78;;;19.83;96.74
12221;BME280;6173;42.024;23.096;2022-08-19T04:44:09;96497.91;;;19.68;97.08
12221;BME280;6173;42.024;23.096;2022-08-19T04:46:36;96510.81;;;19.78;98.19
12221;BME280;6173;42.024;23.096;2022-08-19T04:49:05;96513.22;;;19.83;97.91
12221;BME280;6173;42.024;23.096;2022-08-19T04:51:34;96518.06;;;19.94;97.26
12221;BME280;6173;42.024;23.096;2022-08-19T04:54:02;96498.16;;;19.95;96.08
12221;BME280;6173;42.024;23.096;2022-08-19T04:56:29;96511.75;;;20.02;96.75
12221;BME280;6173;42.024;23.096;2022-08-19T04:58:56;96516.53;;;20.28;92.63
12221;BME280;6173;42.024;23.096;2022-08-19T05:01:27;96513.63;;;20.17;93.22
12221;BME280;6173;42.024;23.096;2022-08-19T05:03:55;96514.13;;;20.23;93.49
12221;BME280;6173;42.024;23.096;2022-08-19T05:06:23;96516.13;;;20.26;93.51
12221;BME280;6173;42.024;23.096;2022-08-19T05:08:51;96522.69;;;20.28;93.47
12221;BME280;6173;42.024;23.096;2022-08-19T05:11:20;96501.06;;;20.05;93.21
12221;BME280;6173;42.024;23.096;2022-08-19T05:13:48;96515.66;;;20.39;92.31
12221;BME280;6173;42.024;23.096;2022-08-19T05:16:16;96510.31;;;20.43;91.07
12221;BME280;6173;42.024;23.096;2022-08-19T05:18:48;96508.53;;;20.47;90.63
12221;BME280;6173;42.024;23.096;2022-08-19T05:21:34;96518.59;;;20.70;89.50
12221;BME280;6173;42.024;23.096;2022-08-19T05:24:20;96512.97;;;20.78;88.29
12221;BME280;6173;42.024;23.096;2022-08-19T05:26:50;96513.63;;;20.91;87.07
12221;BME280;6173;42.024;23.096;2022-08-19T05:29:19;96510.63;;;20.96;87.07
12221;BME280;6173;42.024;23.096;2022-08-19T05:31:47;96513.69;;;20.95;86.52
12221;BME280;6173;42.024;23.096;2022-08-19T05:34:16;96509.09;;;20.95;86.26
12221;BME280;6173;42.024;23.096;2022-08-19T05:36:48;96499.94;;;21.00;86.04
12221;BME280;6173;42.024;23.096;2022-08-19T05:39:18;96510.13;;;21.10;84.27
12221;BME280;6173;42.024;23.096;2022-08-19T05:41:46;96501.50;;;21.01;84.26
12221;BME280;6173;42.024;23.096;2022-08-19T05:44:14;96506.50;;;21.02;86.11
12221;BME280;6173;42.024;23.096;2022-08-19T05:46:43;96509.28;;;21.06;90.65
12221;BME280;6173;42.024;23.096;2022-08-19T05:49:12;96503.63;;;20.91;93.86
12221;BME280;6173;42.024;23.096;2022-08-19T05:51:42;96510.38;;;20.82;94.66
12221;BME280;6173;42.024;23.096;2022-08-19T05:54:09;96511.88;;;20.60;96.70
12221;BME280;6173;42.024;23.096;2022-08-19T05:56:38;96506.81;;;20.58;98.02
12221;BME280;6173;42.024;23.096;2022-08-19T05:59:06;96501.66;;;20.69;97.81
12221;BME280;6173;42.024;23.096;2022-08-19T06:01:34;96500.16;;;20.72;96.46
12221;BME280;6173;42.024;23.096;2022-08-19T06:04:02;96507.84;;;20.70;96.70
12221;BME280;6173;42.024;23.096;2022-08-19T06:06:29;96504.84;;;20.75;95.05
12221;BME280;6173;42.024;23.096;2022-08-19T06:08:58;96501.88;;;20.80;96.22
12221;BME280;6173;42.024;23.096;2022-08-19T06:11:32;96506.19;;;21.04;95.79
12221;BME280;6173;42.024;23.096;2022-08-19T06:14:01;96482.28;;;21.02;94.36
12221;BME280;6173;42.024;23.096;2022-08-19T06:16:28;96500.22;;;21.14;94.43
12221;BME280;6173;42.024;23.096;2022-08-19T06:19:02;96487.31;;;21.04;93.84
12221;BME280;6173;42.024;23.096;2022-08-19T06:21:30;96463.88;;;21.04;92.56
12221;BME280;6173;42.024;23.096;2022-08-19T06:23:59;96511.50;;;21.65;88.49
12221;BME280;6173;42.024;23.096;2022-08-19T06:26:26;96493.09;;;21.71;86.11
12221;BME280;6173;42.024;23.096;2022-08-19T06:28:53;96520.81;;;21.94;84.69
12221;BME280;6173;42.024;23.096;2022-08-19T06:31:27;96514.78;;;21.78;85.37
12221;BME280;6173;42.024;23.096;2022-08-19T06:33:54;96511.47;;;21.88;83.19
12221;BME280;6173;42.024;23.096;2022-08-19T06:36:23;96509.34;;;22.01;82.44
12221;BME280;6173;42.024;23.096;2022-08-19T06:38:52;96494.22;;;21.93;81.29
12221;BME280;6173;42.024;23.096;2022-08-19T06:41:20;96487.06;;;22.08;80.59
12221;BME280;6173;42.024;23.096;2022-08-19T06:43:47;96477.50;;;21.84;80.09
12221;BME280;6173;42.024;23.096;2022-08-19T06:46:16;96503.91;;;22.54;77.61
12221;BME280;6173;42.024;23.096;2022-08-19T06:48:43;96505.84;;;22.54;79.00
12221;BME280;6173;42.024;23.096;2022-08-19T06:51:10;96511.59;;;22.52;77.91
12221;BME280;6173;42.024;23.096;2022-08-19T06:53:37;96511.41;;;22.68;78.06
12221;BME280;6173;42.024;23.096;2022-08-19T06:56:05;96508.41;;;22.73;76.44
12221;BME280;6173;42.024;23.096;2022-08-19T06:58:33;96500.84;;;22.56;77.28
12221;BME280;6173;42.024;23.096;2022-08-19T07:01:02;96500.19;;;22.66;77.04
12221;BME280;6173;42.024;23.096;2022-08-19T07:03:31;96503.34;;;22.71;76.09
12221;BME280;6173;42.024;23.096;2022-08-19T07:05:58;96509.16;;;22.74;75.45
12221;BME280;6173;42.024;23.096;2022-08-19T07:08:28;96500.50;;;22.91;74.56
12221;BME280;6173;42.024;23.096;2022-08-19T07:10:55;96513.00;;;23.03;73.10
12221;BME280;6173;42.024;23.096;2022-08-19T07:13:23;96506.59;;;23.21;71.58
12221;BME280;6173;42.024;23.096;2022-08-19T07:15:51;96497.47;;;23.37;69.91
12221;BME280;6173;42.024;23.096;2022-08-19T07:18:19;96496.03;;;23.46;68.85
12221;BME280;6173;42.024;23.096;2022-08-19T07:20:46;96498.91;;;23.64;68.36
12221;BME280;6173;42.024;23.096;2022-08-19T07:23:13;96498.19;;;23.71;66.28
12221;BME280;6173;42.024;23.096;2022-08-19T07:25:40;96505.09;;;23.65;66.00
12221;BME280;6173;42.024;23.096;2022-08-19T07:28:08;96492.63;;;23.57;66.98
12221;BME280;6173;42.024;23.096;2022-08-19T07:30:38;96502.13;;;23.81;65.98
12221;BME280;6173;42.024;23.096;2022-08-19T07:33:07;96496.78;;;23.88;66.30
12221;BME280;6173;42.024;23.096;2022-08-19T07:35:34;96493.03;;;24.07;65.37
12221;BME280;6173;42.024;23.096;2022-08-19T07:38:00;96479.88;;;24.05;62.37
12221;BME280;6173;42.024;23.096;2022-08-19T07:40:29;96500.09;;;24.25;60.68
12221;BME280;6173;42.024;23.096;2022-08-19T07:42:56;96496.28;;;24.34;61.99
12221;BME280;6173;42.024;23.096;2022-08-19T07:45:23;96492.41;;;24.35;59.54
12221;BME280;6173;42.024;23.096;2022-08-19T07:47:50;96496.41;;;24.55;59.82
12221;BME280;6173;42.024;23.096;2022-08-19T07:50:20;96494.88;;;24.61;59.25
12221;BME280;6173;42.024;23.096;2022-08-19T07:52:47;96489.91;;;24.74;58.85
12221;BME280;6173;42.024;23.096;2022-08-19T07:55:16;96490.72;;;24.96;57.69
12221;BME280;6173;42.024;23.096;2022-08-19T07:57:42;96485.34;;;24.99;56.61
12221;BME280;6173;42.024;23.096;2022-08-19T08:00:10;96479.13;;;25.06;56.85
12221;BME280;6173;42.024;23.096;2022-08-19T08:02:37;96486.53;;;25.09;56.82
12221;BME280;6173;42.024;23.096;2022-08-19T08:05:04;96482.72;;;25.28;56.65
12221;BME280;6173;42.024;23.096;2022-08-19T08:07:46;96473.03;;;25.45;54.43
12221;BME280;6173;42.024;23.096;2022-08-19T08:10:31;96484.28;;;25.58;54.35
12221;BME280;6173;42.024;23.096;2022-08-19T08:12:58;96472.66;;;25.68;52.83
12221;BME280;6173;42.024;23.096;2022-08-19T08:15:25;96455.59;;;25.67;52.84
12221;BME280;6173;42.024;23.096;2022-08-19T08:17:51;96473.84;;;25.81;51.63
12221;BME280;6173;42.024;23.096;2022-08-19T08:20:19;96470.31;;;25.84;52.31
12221;BME280;6173;42.024;23.096;2022-08-19T08:22:47;96463.34;;;26.01;51.54
12221;BME280;6173;42.024;23.096;2022-08-19T08:25:32;96455.56;;;26.03;51.40
12221;BME280;6173;42.024;23.096;2022-08-19T08:28:01;96460.16;;;26.24;50.46
12221;BME280;6173;42.024;23.096;2022-08-19T08:30:29;96458.56;;;26.44;51.24
12221;BME280;6173;42.024;23.096;2022-08-19T08:32:58;96456.19;;;26.57;51.54
12221;BME280;6173;42.024;23.096;2022-08-19T08:35:25;96424.78;;;26.56;49.14
12221;BME280;6173;42.024;23.096;2022-08-19T08:37:54;96452.94;;;26.87;48.89
12221;BME280;6173;42.024;23.096;2022-08-19T08:40:27;96451.28;;;27.04;48.81
12221;BME280;6173;42.024;23.096;2022-08-19T08:42:57;96449.25;;;27.22;48.25
12221;BME280;6173;42.024;23.096;2022-08-19T08:45:26;96445.16;;;27.48;46.85
12221;BME280;6173;42.024;23.096;2022-08-19T08:47:57;96444.63;;;27.64;47.32
12221;BME280;6173;42.024;23.096;2022-08-19T08:50:33;96427.50;;;27.71;46.14
12221;BME280;6173;42.024;23.096;2022-08-19T08:53:06;96415.00;;;27.77;46.01
12221;BME280;6173;42.024;23.096;2022-08-19T08:55:34;96423.31;;;28.00;46.67
12221;BME280;6173;42.024;23.096;2022-08-19T08:58:04;96428.13;;;28.23;45.26
12221;BME280;6173;42.024;23.096;2022-08-19T09:00:34;96426.09;;;28.35;44.97
12221;BME280;6173;42.024;23.096;2022-08-19T09:03:02;96422.13;;;28.39;44.17
12221;BME280;6173;42.024;23.096;2022-08-19T09:05:38;96421.09;;;28.60;43.93
12221;BME280;6173;42.024;23.096;2022-08-19T09:08:15;96421.75;;;28.68;43.28
12221;BME280;6173;42.024;23.096;2022-08-19T09:10:48;96402.06;;;28.83;43.01
12221;BME280;6173;42.024;23.096;2022-08-19T09:13:21;96414.75;;;28.97;41.79
12221;BME280;6173;42.024;23.096;2022-08-19T09:15:54;96412.78;;;29.25;41.60
12221;BME280;6173;42.024;23.096;2022-08-19T09:18:23;96411.28;;;29.44;41.15
12221;BME280;6173;42.024;23.096;2022-08-19T09:20:50;96407.41;;;29.45;40.40
12221;BME280;6173;42.024;23.096;2022-08-19T09:23:18;96404.47;;;29.59;41.01
12221;BME280;6173;42.024;23.096;2022-08-19T09:25:49;96380.28;;;29.57;40.28
12221;BME280;6173;42.024;23.096;2022-08-19T09:28:16;96397.94;;;29.73;40.63
12221;BME280;6173;42.024;23.096;2022-08-19T09:30:43;96382.22;;;29.80;40.51
12221;BME280;6173;42.024;23.096;2022-08-19T09:33:10;96387.91;;;30.09;39.72
12221;BME280;6173;42.024;23.096;2022-08-19T09:35:37;96381.91;;;30.18;39.59
12221;BME280;6173;42.024;23.096;2022-08-19T09:38:04;96386.69;;;30.14;39.79
12221;BME280;6173;42.024;23.096;2022-08-19T09:40:32;96375.66;;;30.18;39.97
12221;BME280;6173;42.024;23.096;2022-08-19T09:42:59;96367.53;;;30.34;39.22
12221;BME280;6173;42.024;23.096;2022-08-19T09:45:28;96367.59;;;30.67;39.46
12221;BME280;6173;42.024;23.096;2022-08-19T09:47:56;96369.03;;;30.91;38.61
12221;BME280;6173;42.024;23.096;2022-08-19T09:50:23;96360.81;;;31.07;37.83
12221;BME280;6173;42.024;23.096;2022-08-19T09:52:50;96358.00;;;31.11;37.55
12221;BME280;6173;42.024;23.096;2022-08-19T09:55:18;96348.28;;;31.26;37.58
12221;BME280;6173;42.024;23.096;2022-08-19T09:57:47;96347.72;;;31.48;37.23
12221;BME280;6173;42.024;23.096;2022-08-19T10:00:14;96347.91;;;31.40;36.83
12221;BME280;6173;42.024;23.096;2022-08-19T10:02:40;96321.22;;;31.45;36.65
12221;BME280;6173;42.024;23.096;2022-08-19T10:05:08;96337.91;;;31.79;37.03
12221;BME280;6173;42.024;23.096;2022-08-19T10:07:52;96336.78;;;31.77;36.36
12221;BME280;6173;42.024;23.096;2022-08-19T10:10:19;96339.88;;;31.79;36.08
12221;BME280;6173;42.024;23.096;2022-08-19T10:12:47;96328.34;;;32.00;35.76
12221;BME280;6173;42.024;23.096;2022-08-19T10:15:14;96322.53;;;31.98;35.66
12221;BME280;6173;42.024;23.096;2022-08-19T10:17:41;96324.34;;;32.17;36.19
12221;BME280;6173;42.024;23.096;2022-08-19T10:20:09;96329.13;;;32.42;35.71
12221;BME280;6173;42.024;23.096;2022-08-19T10:22:36;96319.44;;;32.51;35.04
12221;BME280;6173;42.024;23.096;2022-08-19T10:25:05;96323.06;;;32.60;34.97
12221;BME280;6173;42.024;23.096;2022-08-19T10:27:32;96321.84;;;32.87;34.85
12221;BME280;6173;42.024;23.096;2022-08-19T10:30:00;96317.25;;;32.97;34.27
12221;BME280;6173;42.024;23.096;2022-08-19T10:32:27;96304.63;;;32.74;33.78
12221;BME280;6173;42.024;23.096;2022-08-19T10:34:55;96305.94;;;32.82;33.80
12221;BME280;6173;42.024;23.096;2022-08-19T10:37:22;96307.56;;;33.17;33.87
12221;BME280;6173;42.024;23.096;2022-08-19T10:39:49;96299.56;;;33.45;33.41
12221;BME280;6173;42.024;23.096;2022-08-19T10:42:16;96299.19;;;33.56;32.62
12221;BME280;6173;42.024;23.096;2022-08-19T10:44:44;96286.22;;;33.56;32.09
12221;BME280;6173;42.024;23.096;2022-08-19T10:47:13;96290.47;;;33.70;31.27
12221;BME280;6173;42.024;23.096;2022-08-19T10:49:40;96285.03;;;33.79;31.18
12221;BME280;6173;42.024;23.096;2022-08-19T10:52:21;96290.78;;;33.72;30.69
12221;BME280;6173;42.024;23.096;2022-08-19T10:54:59;96285.72;;;33.70;30.91
12221;BME280;6173;42.024;23.096;2022-08-19T10:57:52;96282.41;;;33.76;29.75
12221;BME280;6173;42.024;23.096;2022-08-19T11:00:20;96276.97;;;33.85;30.05
12221;BME280;6173;42.024;23.096;2022-08-19T11:02:49;96282.72;;;33.56;29.73
12221;BME280;6173;42.024;23.096;2022-08-19T11:05:16;96248.41;;;33.38;30.13
12221;BME280;6173;42.024;23.096;2022-08-19T11:07:44;96278.59;;;33.73;30.23
12221;BME280;6173;42.024;23.096;2022-08-19T11:10:13;96275.63;;;33.89;30.18
12221;BME280;6173;42.024;23.096;2022-08-19T11:12:44;96268.91;;;34.12;29.93
12221;BME280;6173;42.024;23.096;2022-08-19T11:15:12;96264.06;;;34.26;30.27
12221;BME280;6173;42.024;23.096;2022-08-19T11:17:39;96267.59;;;34.26;29.35
12221;BME280;6173;42.024;23.096;2022-08-19T11:20:12;96263.03;;;34.01;29.87
12221;BME280;6173;42.024;23.096;2022-08-19T11:22:40;96262.13;;;34.35;30.23
12221;BME280;6173;42.024;23.096;2022-08-19T11:25:08;96256.59;;;34.26;29.57
12221;BME280;6173;42.024;23.096;2022-08-19T11:27:38;96258.78;;;34.40;29.11
12221;BME280;6173;42.024;23.096;2022-08-19T11:30:06;96223.03;;;34.40;28.61
12221;BME280;6173;42.024;23.096;2022-08-19T11:32:33;96236.13;;;34.67;28.58
12221;BME280;6173;42.024;23.096;2022-08-19T11:35:00;96229.59;;;34.83;28.49
12221;BME280;6173;42.024;23.096;2022-08-19T11:37:28;96235.09;;;34.92;27.93
12221;BME280;6173;42.024;23.096;2022-08-19T11:39:55;96222.88;;;34.93;28.03
12221;BME280;6173;42.024;23.096;2022-08-19T11:42:22;96229.19;;;35.03;27.79
12221;BME280;6173;42.024;23.096;2022-08-19T11:45:07;96226.53;;;34.72;28.36
12221;BME280;6173;42.024;23.096;2022-08-19T11:47:34;96217.75;;;34.55;28.77
12221;BME280;6173;42.024;23.096;2022-08-19T11:50:02;96217.03;;;34.73;28.49
12221;BME280;6173;42.024;23.096;2022-08-19T11:52:30;96211.50;;;34.64;28.19
12221;BME280;6173;42.024;23.096;2022-08-19T11:54:57;96215.03;;;34.64;28.85
12221;BME280;6173;42.024;23.096;2022-08-19T11:57:24;96209.06;;;34.57;28.59
12221;BME280;6173;42.024;23.096;2022-08-19T11:59:51;96202.41;;;35.13;28.62
12221;BME280;6173;42.024;23.096;2022-08-19T12:02:19;96179.44;;;35.53;27.24
12221;BME280;6173;42.024;23.096;2022-08-19T12:04:47;96183.31;;;35.88;27.05
12221;BME280;6173;42.024;23.096;2022-08-19T12:07:13;96184.91;;;35.71;27.40
12221;BME280;6173;42.024;23.096;2022-08-19T12:09:42;96188.25;;;35.75;27.41
12221;BME280;6173;42.024;23.096;2022-08-19T12:12:09;96174.41;;;36.03;27.13
12221;BME280;6173;42.024;23.096;2022-08-19T12:14:35;96159.22;;;36.40;25.69
12221;BME280;6173;42.024;23.096;2022-08-19T12:17:02;96159.94;;;36.50;25.21
12221;BME280;6173;42.024;23.096;2022-08-19T12:19:31;96163.97;;;36.88;24.88
12221;BME280;6173;42.024;23.096;2022-08-19T12:22:00;96157.97;;;37.28;25.33
12221;BME280;6173;42.024;23.096;2022-08-19T12:24:30;96163.69;;;38.69;23.81
12221;BME280;6173;42.024;23.096;2022-08-19T12:26:59;96157.53;;;41.01;21.69
12221;BME280;6173;42.024;23.096;2022-08-19T12:29:28;96168.28;;;41.70;20.72
12221;BME280;6173;42.024;23.096;2022-08-19T12:31:55;96150.03;;;43.41;19.49
12221;BME280;6173;42.024;23.096;2022-08-19T12:34:27;96142.00;;;44.52;18.31
12221;BME280;6173;42.024;23.096;2022-08-19T12:36:56;96157.22;;;45.51;17.13
12221;BME280;6173;42.024;23.096;2022-08-19T12:39:23;96146.34;;;46.65;16.29
12221;BME280;6173;42.024;23.096;2022-08-19T12:41:50;96149.34;;;46.67;16.22
12221;BME280;6173;42.024;23.096;2022-08-19T12:44:19;96144.38;;;45.75;16.64
12221;BME280;6173;42.024;23.096;2022-08-19T12:46:46;96147.94;;;48.47;15.70
12221;BME280;6173;42.024;23.096;2022-08-19T12:49:14;96137.78;;;49.24;13.96
12221;BME280;6173;42.024;23.096;2022-08-19T12:51:42;96146.38;;;49.10;13.78
12221;BME280;6173;42.024;23.096;2022-08-19T12:54:09;96135.22;;;48.53;14.09
12221;BME280;6173;42.024;23.096;2022-08-19T12:56:36;96142.69;;;50.38;13.72
12221;BME280;6173;42.024;23.096;2022-08-19T12:59:03;96128.13;;;50.72;12.96
12221;BME280;6173;42.024;23.096;2022-08-19T13:01:32;96130.25;;;51.94;12.56
12221;BME280;6173;42.024;23.096;2022-08-19T13:03:59;96131.44;;;52.09;12.08
12221;BME280;6173;42.024;23.096;2022-08-19T13:06:26;96129.81;;;52.40;11.82
12221;BME280;6173;42.024;23.096;2022-08-19T13:08:53;96122.19;;;51.91;12.27